Portada
METAR-TAF:

METAR-TAF

Aeroports :

Chiang Rai, Tailàndia

latitud: 19-57-08N, longitud: 099-52-59E, altitud: 390 m

Observació

L'informe es va fer fa 56 minuts, a les 01:00 UTC
Vent 4 kt del Sud, variant entre Sud/Sud-Est i Sud-Oest
Temperatura 26°C
Humitat 84%
Pressió 1012 hPa
Visibilitat 10 km o més
Escasses núvols a una alçada de 3500 ft

METAR: VTCT 180100Z 17004KT 150V220 9999 FEW035 26/23 Q1012 NOSIG

Hora: 08:56 (01:56 UTC)

Pronòstic

L'informe es va fer fa 2 hores i 56 minuts, a les 23:00 UTC
Pronòstic vàlid del 18 a les 00 UTC al 19 a les 06 UTC
Vent 5 kt del Sud/Sud-Oest
Visibilitat 10 km o més
Núvols disperses a una alçada de 3000 ft

TAF: VTCT 172300Z 1800/1906 20005KT 9999 SCT030

Observacions i pronòstics meteorològics de més de 4000 aeroports (METAR i TAF).

Les estacions disponibles són els punts grocs i vermells al mapa.

Posi el ratolí al punt desitjat per veure el nom de l'estació.

Feu clic per veure les observacions i els pronòstics meteorològics.

Per canviar el mapa: feu clic els botons verds amb una creu de color negre per apropar; al botó verd amb un guió per allunyar la imatge; o en les fletxes verdes per a mapes adjacents.


METAR-TAF: